sensor_id;sensor_type;location;lat;lon;timestamp;temperature;humidity
31369;DHT22;18004;48.416;10.066;2023-05-23T00:00:31;16.20;99.90
31369;DHT22;18004;48.416;10.066;2023-05-23T00:02:58;16.10;99.90
31369;DHT22;18004;48.416;10.066;2023-05-23T00:05:25;16.10;99.90
31369;DHT22;18004;48.416;10.066;2023-05-23T00:07:51;16.10;99.90
31369;DHT22;18004;48.416;10.066;2023-05-23T00:10:17;16.00;99.90
31369;DHT22;18004;48.416;10.066;2023-05-23T00:12:43;16.00;99.90
31369;DHT22;18004;48.416;10.066;2023-05-23T00:15:09;16.00;99.90
31369;DHT22;18004;48.416;10.066;2023-05-23T00:17:35;16.00;99.90
31369;DHT22;18004;48.416;10.066;2023-05-23T00:20:03;16.00;99.90
31369;DHT22;18004;48.416;10.066;2023-05-23T00:22:29;15.90;99.90
31369;DHT22;18004;48.416;10.066;2023-05-23T00:24:55;15.90;99.90
31369;DHT22;18004;48.416;10.066;2023-05-23T00:27:22;15.90;99.90
31369;DHT22;18004;48.416;10.066;2023-05-23T00:29:48;15.90;99.90
31369;DHT22;18004;48.416;10.066;2023-05-23T00:32:14;15.90;99.90
31369;DHT22;18004;48.416;10.066;2023-05-23T00:34:40;15.90;99.90
31369;DHT22;18004;48.416;10.066;2023-05-23T00:37:05;15.90;99.90
31369;DHT22;18004;48.416;10.066;2023-05-23T00:39:31;15.90;99.90
31369;DHT22;18004;48.416;10.066;2023-05-23T00:41:57;15.80;99.90
31369;DHT22;18004;48.416;10.066;2023-05-23T00:44:23;15.80;99.90
31369;DHT22;18004;48.416;10.066;2023-05-23T00:46:51;15.80;99.90
31369;DHT22;18004;48.416;10.066;2023-05-23T00:49:18;15.70;99.90
31369;DHT22;18004;48.416;10.066;2023-05-23T00:51:47;15.70;99.90
31369;DHT22;18004;48.416;10.066;2023-05-23T00:54:35;15.60;99.90
31369;DHT22;18004;48.416;10.066;2023-05-23T00:57:01;15.60;99.90
31369;DHT22;18004;48.416;10.066;2023-05-23T00:59:28;15.60;99.90
31369;DHT22;18004;48.416;10.066;2023-05-23T01:01:55;15.60;99.90
31369;DHT22;18004;48.416;10.066;2023-05-23T01:04:22;15.60;99.90
31369;DHT22;18004;48.416;10.066;2023-05-23T01:06:59;15.60;99.90
31369;DHT22;18004;48.416;10.066;2023-05-23T01:09:27;15.50;99.90
31369;DHT22;18004;48.416;10.066;2023-05-23T01:11:57;15.60;99.90
31369;DHT22;18004;48.416;10.066;2023-05-23T01:14:37;15.60;99.90
31369;DHT22;18004;48.416;10.066;2023-05-23T01:17:20;15.60;99.90
31369;DHT22;18004;48.416;10.066;2023-05-23T01:20:02;15.60;99.90
31369;DHT22;18004;48.416;10.066;2023-05-23T01:25:53;15.50;99.90
31369;DHT22;18004;48.416;10.066;2023-05-23T01:28:28;15.50;99.90
31369;DHT22;18004;48.416;10.066;2023-05-23T01:30:57;15.50;99.90
31369;DHT22;18004;48.416;10.066;2023-05-23T01:33:24;15.50;99.90
31369;DHT22;18004;48.416;10.066;2023-05-23T01:35:50;15.50;99.90
31369;DHT22;18004;48.416;10.066;2023-05-23T01:38:17;15.50;99.90
31369;DHT22;18004;48.416;10.066;2023-05-23T01:40:42;15.50;99.90
31369;DHT22;18004;48.416;10.066;2023-05-23T01:43:08;15.40;99.90
31369;DHT22;18004;48.416;10.066;2023-05-23T01:45:34;15.40;99.90
31369;DHT22;18004;48.416;10.066;2023-05-23T01:48:01;15.30;99.90
31369;DHT22;18004;48.416;10.066;2023-05-23T01:50:27;15.30;99.90
31369;DHT22;18004;48.416;10.066;2023-05-23T01:52:54;15.20;99.90
31369;DHT22;18004;48.416;10.066;2023-05-23T01:55:21;15.30;99.90
31369;DHT22;18004;48.416;10.066;2023-05-23T01:57:54;15.20;99.90
31369;DHT22;18004;48.416;10.066;2023-05-23T02:00:20;15.20;99.90
31369;DHT22;18004;48.416;10.066;2023-05-23T02:02:46;15.20;99.90
31369;DHT22;18004;48.416;10.066;2023-05-23T02:05:12;15.20;99.90
31369;DHT22;18004;48.416;10.066;2023-05-23T02:07:38;15.10;99.90
31369;DHT22;18004;48.416;10.066;2023-05-23T02:10:07;15.10;99.90
31369;DHT22;18004;48.416;10.066;2023-05-23T02:12:33;15.10;99.90
31369;DHT22;18004;48.416;10.066;2023-05-23T02:14:59;15.00;99.90
31369;DHT22;18004;48.416;10.066;2023-05-23T02:17:25;15.10;99.90
31369;DHT22;18004;48.416;10.066;2023-05-23T02:19:51;15.00;99.90
31369;DHT22;18004;48.416;10.066;2023-05-23T02:22:17;15.00;99.90
31369;DHT22;18004;48.416;10.066;2023-05-23T02:24:42;14.90;99.90
31369;DHT22;18004;48.416;10.066;2023-05-23T02:27:08;14.90;99.90
31369;DHT22;18004;48.416;10.066;2023-05-23T02:29:34;14.90;99.90
31369;DHT22;18004;48.416;10.066;2023-05-23T02:32:00;14.90;99.90
31369;DHT22;18004;48.416;10.066;2023-05-23T02:34:26;15.00;99.90
31369;DHT22;18004;48.416;10.066;2023-05-23T02:36:51;14.90;99.90
31369;DHT22;18004;48.416;10.066;2023-05-23T02:39:17;14.90;99.90
31369;DHT22;18004;48.416;10.066;2023-05-23T02:41:43;14.90;99.90
31369;DHT22;18004;48.416;10.066;2023-05-23T02:44:08;14.90;99.90
31369;DHT22;18004;48.416;10.066;2023-05-23T02:46:34;14.90;99.90
31369;DHT22;18004;48.416;10.066;2023-05-23T02:49:00;14.90;99.90
31369;DHT22;18004;48.416;10.066;2023-05-23T02:51:26;14.90;99.90
31369;DHT22;18004;48.416;10.066;2023-05-23T02:53:51;14.90;99.90
31369;DHT22;18004;48.416;10.066;2023-05-23T02:56:17;14.90;99.90
31369;DHT22;18004;48.416;10.066;2023-05-23T02:58:43;14.90;99.90
31369;DHT22;18004;48.416;10.066;2023-05-23T03:01:09;14.90;99.90
31369;DHT22;18004;48.416;10.066;2023-05-23T03:03:34;14.90;99.90
31369;DHT22;18004;48.416;10.066;2023-05-23T03:06:03;14.90;99.90
31369;DHT22;18004;48.416;10.066;2023-05-23T03:08:30;14.90;99.90
31369;DHT22;18004;48.416;10.066;2023-05-23T03:10:56;14.90;99.90
31369;DHT22;18004;48.416;10.066;2023-05-23T03:13:22;14.90;99.90
31369;DHT22;18004;48.416;10.066;2023-05-23T03:15:48;14.90;99.90
31369;DHT22;18004;48.416;10.066;2023-05-23T03:18:14;14.90;99.90
31369;DHT22;18004;48.416;10.066;2023-05-23T03:20:40;14.90;99.90
31369;DHT22;18004;48.416;10.066;2023-05-23T03:23:06;14.90;99.90
31369;DHT22;18004;48.416;10.066;2023-05-23T03:25:32;14.90;99.90
31369;DHT22;18004;48.416;10.066;2023-05-23T03:27:58;14.90;99.90
31369;DHT22;18004;48.416;10.066;2023-05-23T03:30:24;14.90;99.90
31369;DHT22;18004;48.416;10.066;2023-05-23T03:32:50;14.90;99.90
31369;DHT22;18004;48.416;10.066;2023-05-23T03:35:15;14.90;99.90
31369;DHT22;18004;48.416;10.066;2023-05-23T03:37:41;14.90;99.90
31369;DHT22;18004;48.416;10.066;2023-05-23T03:40:07;14.90;99.90
31369;DHT22;18004;48.416;10.066;2023-05-23T03:42:35;15.00;99.90
31369;DHT22;18004;48.416;10.066;2023-05-23T03:45:01;15.00;99.90
31369;DHT22;18004;48.416;10.066;2023-05-23T03:47:26;15.00;99.90
31369;DHT22;18004;48.416;10.066;2023-05-23T03:49:52;15.00;99.90
31369;DHT22;18004;48.416;10.066;2023-05-23T03:52:18;15.00;99.90
31369;DHT22;18004;48.416;10.066;2023-05-23T03:54:44;15.00;99.90
31369;DHT22;18004;48.416;10.066;2023-05-23T03:57:09;15.00;99.90
31369;DHT22;18004;48.416;10.066;2023-05-23T03:59:35;15.00;99.90
31369;DHT22;18004;48.416;10.066;2023-05-23T04:02:01;14.90;99.90
31369;DHT22;18004;48.416;10.066;2023-05-23T04:04:27;15.00;99.90
31369;DHT22;18004;48.416;10.066;2023-05-23T04:06:53;15.00;99.90
31369;DHT22;18004;48.416;10.066;2023-05-23T04:09:19;15.00;99.90
31369;DHT22;18004;48.416;10.066;2023-05-23T04:11:45;15.00;99.90
31369;DHT22;18004;48.416;10.066;2023-05-23T04:14:11;15.00;99.90
31369;DHT22;18004;48.416;10.066;2023-05-23T04:16:38;15.00;99.90
31369;DHT22;18004;48.416;10.066;2023-05-23T04:19:06;15.00;99.90
31369;DHT22;18004;48.416;10.066;2023-05-23T04:21:35;15.00;99.90
31369;DHT22;18004;48.416;10.066;2023-05-23T04:24:01;15.10;99.90
31369;DHT22;18004;48.416;10.066;2023-05-23T04:26:27;15.20;99.90
31369;DHT22;18004;48.416;10.066;2023-05-23T04:28:53;15.20;99.90
31369;DHT22;18004;48.416;10.066;2023-05-23T04:31:20;15.20;99.90
31369;DHT22;18004;48.416;10.066;2023-05-23T04:33:47;15.30;99.90
31369;DHT22;18004;48.416;10.066;2023-05-23T04:36:13;15.30;99.90
31369;DHT22;18004;48.416;10.066;2023-05-23T04:38:39;15.40;99.90
31369;DHT22;18004;48.416;10.066;2023-05-23T04:41:08;15.50;99.90
31369;DHT22;18004;48.416;10.066;2023-05-23T04:43:37;15.60;99.90
31369;DHT22;18004;48.416;10.066;2023-05-23T04:46:08;15.60;99.90
31369;DHT22;18004;48.416;10.066;2023-05-23T04:48:35;15.70;99.90
31369;DHT22;18004;48.416;10.066;2023-05-23T04:51:02;15.80;99.90
31369;DHT22;18004;48.416;10.066;2023-05-23T04:53:30;15.90;99.90
31369;DHT22;18004;48.416;10.066;2023-05-23T04:55:56;15.90;99.90
31369;DHT22;18004;48.416;10.066;2023-05-23T04:58:22;15.90;99.90
31369;DHT22;18004;48.416;10.066;2023-05-23T05:00:48;16.00;99.90
31369;DHT22;18004;48.416;10.066;2023-05-23T05:03:14;16.00;99.90
31369;DHT22;18004;48.416;10.066;2023-05-23T05:20:17;16.50;99.90
31369;DHT22;18004;48.416;10.066;2023-05-23T05:22:42;16.50;99.90
31369;DHT22;18004;48.416;10.066;2023-05-23T05:25:09;16.60;99.90
31369;DHT22;18004;48.416;10.066;2023-05-23T05:27:36;16.60;99.90
31369;DHT22;18004;48.416;10.066;2023-05-23T05:30:15;16.70;99.90
31369;DHT22;18004;48.416;10.066;2023-05-23T05:36:28;17.00;99.90
31369;DHT22;18004;48.416;10.066;2023-05-23T05:38:54;17.00;99.90
31369;DHT22;18004;48.416;10.066;2023-05-23T05:41:56;17.00;99.90
31369;DHT22;18004;48.416;10.066;2023-05-23T05:45:23;17.20;99.90
31369;DHT22;18004;48.416;10.066;2023-05-23T05:48:27;17.20;99.90
31369;DHT22;18004;48.416;10.066;2023-05-23T05:50:53;17.30;99.90
31369;DHT22;18004;48.416;10.066;2023-05-23T05:53:19;17.20;99.90
31369;DHT22;18004;48.416;10.066;2023-05-23T05:55:45;17.10;99.90
31369;DHT22;18004;48.416;10.066;2023-05-23T05:58:10;17.10;99.90
31369;DHT22;18004;48.416;10.066;2023-05-23T06:00:36;16.90;99.90
31369;DHT22;18004;48.416;10.066;2023-05-23T06:03:09;16.80;99.90
31369;DHT22;18004;48.416;10.066;2023-05-23T06:05:35;16.80;99.90
31369;DHT22;18004;48.416;10.066;2023-05-23T06:08:02;16.80;99.90
31369;DHT22;18004;48.416;10.066;2023-05-23T06:10:28;16.70;99.90
31369;DHT22;18004;48.416;10.066;2023-05-23T06:12:54;16.70;99.90
31369;DHT22;18004;48.416;10.066;2023-05-23T06:15:20;16.70;99.90
31369;DHT22;18004;48.416;10.066;2023-05-23T06:17:46;16.70;99.90
31369;DHT22;18004;48.416;10.066;2023-05-23T06:20:11;16.70;99.90
31369;DHT22;18004;48.416;10.066;2023-05-23T06:22:37;16.70;99.90
31369;DHT22;18004;48.416;10.066;2023-05-23T06:25:04;16.70;99.90
31369;DHT22;18004;48.416;10.066;2023-05-23T06:27:30;16.80;99.90
31369;DHT22;18004;48.416;10.066;2023-05-23T06:29:56;16.70;99.90
31369;DHT22;18004;48.416;10.066;2023-05-23T06:32:22;16.80;99.90
31369;DHT22;18004;48.416;10.066;2023-05-23T06:34:47;16.80;99.90
31369;DHT22;18004;48.416;10.066;2023-05-23T06:37:13;16.80;99.90
31369;DHT22;18004;48.416;10.066;2023-05-23T06:39:39;16.90;99.90
31369;DHT22;18004;48.416;10.066;2023-05-23T06:42:05;16.90;99.90
31369;DHT22;18004;48.416;10.066;2023-05-23T06:44:31;17.00;99.90
31369;DHT22;18004;48.416;10.066;2023-05-23T06:47:35;17.00;99.90
31369;DHT22;18004;48.416;10.066;2023-05-23T06:50:01;17.10;99.90
31369;DHT22;18004;48.416;10.066;2023-05-23T06:52:27;17.10;99.90
31369;DHT22;18004;48.416;10.066;2023-05-23T06:54:53;17.10;99.90
31369;DHT22;18004;48.416;10.066;2023-05-23T06:57:19;17.10;99.90
31369;DHT22;18004;48.416;10.066;2023-05-23T06:59:44;17.10;99.90
31369;DHT22;18004;48.416;10.066;2023-05-23T07:02:10;17.10;99.90
31369;DHT22;18004;48.416;10.066;2023-05-23T07:04:36;17.10;99.90
31369;DHT22;18004;48.416;10.066;2023-05-23T07:07:02;17.20;99.90
31369;DHT22;18004;48.416;10.066;2023-05-23T07:09:28;17.10;99.90
31369;DHT22;18004;48.416;10.066;2023-05-23T07:11:53;17.10;99.90
31369;DHT22;18004;48.416;10.066;2023-05-23T07:14:19;17.10;99.90
31369;DHT22;18004;48.416;10.066;2023-05-23T07:16:45;17.00;99.90
31369;DHT22;18004;48.416;10.066;2023-05-23T07:19:11;16.90;99.90
31369;DHT22;18004;48.416;10.066;2023-05-23T07:21:37;17.00;99.90
31369;DHT22;18004;48.416;10.066;2023-05-23T07:24:04;17.00;99.90
31369;DHT22;18004;48.416;10.066;2023-05-23T07:26:29;17.10;99.90
31369;DHT22;18004;48.416;10.066;2023-05-23T07:28:55;17.00;99.90
31369;DHT22;18004;48.416;10.066;2023-05-23T07:31:21;17.00;99.90
31369;DHT22;18004;48.416;10.066;2023-05-23T07:33:47;17.00;99.90
31369;DHT22;18004;48.416;10.066;2023-05-23T07:36:13;17.10;99.90
31369;DHT22;18004;48.416;10.066;2023-05-23T07:38:38;17.10;99.90
31369;DHT22;18004;48.416;10.066;2023-05-23T07:41:04;17.20;99.90
31369;DHT22;18004;48.416;10.066;2023-05-23T07:43:30;17.20;99.90
31369;DHT22;18004;48.416;10.066;2023-05-23T07:49:41;17.30;99.90
31369;DHT22;18004;48.416;10.066;2023-05-23T07:52:47;17.30;99.90
31369;DHT22;18004;48.416;10.066;2023-05-23T07:55:13;17.30;99.90
31369;DHT22;18004;48.416;10.066;2023-05-23T07:57:38;17.40;99.90
31369;DHT22;18004;48.416;10.066;2023-05-23T08:00:05;17.40;99.90
31369;DHT22;18004;48.416;10.066;2023-05-23T08:02:31;17.50;99.90
31369;DHT22;18004;48.416;10.066;2023-05-23T08:04:57;17.40;99.90
31369;DHT22;18004;48.416;10.066;2023-05-23T08:11:06;17.50;99.90
31369;DHT22;18004;48.416;10.066;2023-05-23T08:13:32;17.60;99.90
31369;DHT22;18004;48.416;10.066;2023-05-23T08:15:58;17.60;99.90
31369;DHT22;18004;48.416;10.066;2023-05-23T08:18:24;17.50;99.90
31369;DHT22;18004;48.416;10.066;2023-05-23T08:20:49;17.50;99.90
31369;DHT22;18004;48.416;10.066;2023-05-23T08:23:16;17.40;99.90
31369;DHT22;18004;48.416;10.066;2023-05-23T08:25:42;17.30;99.90
31369;DHT22;18004;48.416;10.066;2023-05-23T08:28:08;17.20;99.90
31369;DHT22;18004;48.416;10.066;2023-05-23T08:30:34;17.20;99.90
31369;DHT22;18004;48.416;10.066;2023-05-23T08:33:01;17.10;99.90
31369;DHT22;18004;48.416;10.066;2023-05-23T08:35:29;17.30;99.90
31369;DHT22;18004;48.416;10.066;2023-05-23T08:38:00;17.30;99.90
31369;DHT22;18004;48.416;10.066;2023-05-23T08:40:30;17.30;99.90
31369;DHT22;18004;48.416;10.066;2023-05-23T08:42:56;17.40;99.90
31369;DHT22;18004;48.416;10.066;2023-05-23T08:45:22;17.40;99.90
31369;DHT22;18004;48.416;10.066;2023-05-23T08:47:50;17.40;99.90
31369;DHT22;18004;48.416;10.066;2023-05-23T08:50:17;17.50;99.90
31369;DHT22;18004;48.416;10.066;2023-05-23T08:52:57;17.50;99.90
31369;DHT22;18004;48.416;10.066;2023-05-23T08:55:24;17.60;99.90
31369;DHT22;18004;48.416;10.066;2023-05-23T08:57:54;17.70;99.90
31369;DHT22;18004;48.416;10.066;2023-05-23T09:00:21;17.70;99.90
31369;DHT22;18004;48.416;10.066;2023-05-23T09:02:47;17.70;99.90
31369;DHT22;18004;48.416;10.066;2023-05-23T09:05:14;17.80;99.90
31369;DHT22;18004;48.416;10.066;2023-05-23T09:07:40;17.90;99.90
31369;DHT22;18004;48.416;10.066;2023-05-23T09:10:08;18.00;99.90
31369;DHT22;18004;48.416;10.066;2023-05-23T09:12:34;18.00;99.90
31369;DHT22;18004;48.416;10.066;2023-05-23T09:15:04;18.10;99.90
31369;DHT22;18004;48.416;10.066;2023-05-23T09:17:31;18.20;99.90
31369;DHT22;18004;48.416;10.066;2023-05-23T09:19:58;18.20;99.90
31369;DHT22;18004;48.416;10.066;2023-05-23T09:22:26;18.10;99.90
31369;DHT22;18004;48.416;10.066;2023-05-23T09:24:54;18.00;99.90
31369;DHT22;18004;48.416;10.066;2023-05-23T09:27:20;18.10;99.90
31369;DHT22;18004;48.416;10.066;2023-05-23T09:29:46;18.20;99.90
31369;DHT22;18004;48.416;10.066;2023-05-23T09:32:16;18.20;99.90
31369;DHT22;18004;48.416;10.066;2023-05-23T09:34:56;18.30;99.90
31369;DHT22;18004;48.416;10.066;2023-05-23T09:37:35;18.50;99.90
31369;DHT22;18004;48.416;10.066;2023-05-23T09:40:06;18.70;99.90
31369;DHT22;18004;48.416;10.066;2023-05-23T09:42:35;18.60;99.90
31369;DHT22;18004;48.416;10.066;2023-05-23T09:45:06;18.50;99.90
31369;DHT22;18004;48.416;10.066;2023-05-23T09:47:52;18.60;99.90
31369;DHT22;18004;48.416;10.066;2023-05-23T09:54:55;18.90;99.90
31369;DHT22;18004;48.416;10.066;2023-05-23T09:58:18;19.40;99.90
31369;DHT22;18004;48.416;10.066;2023-05-23T10:04:28;19.60;99.90
31369;DHT22;18004;48.416;10.066;2023-05-23T10:07:23;19.60;99.90
31369;DHT22;18004;48.416;10.066;2023-05-23T10:10:04;19.90;99.90
31369;DHT22;18004;48.416;10.066;2023-05-23T10:12:43;19.90;99.90
31369;DHT22;18004;48.416;10.066;2023-05-23T10:15:43;19.90;99.90
31369;DHT22;18004;48.416;10.066;2023-05-23T10:29:47;20.90;93.70
31369;DHT22;18004;48.416;10.066;2023-05-23T10:32:15;20.70;90.60
31369;DHT22;18004;48.416;10.066;2023-05-23T10:35:09;20.10;96.80
31369;DHT22;18004;48.416;10.066;2023-05-23T10:43:30;20.00;99.90
31369;DHT22;18004;48.416;10.066;2023-05-23T10:45:58;20.30;98.90
31369;DHT22;18004;48.416;10.066;2023-05-23T10:51:11;20.30;97.90
31369;DHT22;18004;48.416;10.066;2023-05-23T10:53:38;20.00;98.10
31369;DHT22;18004;48.416;10.066;2023-05-23T10:56:09;20.10;95.70
31369;DHT22;18004;48.416;10.066;2023-05-23T10:58:36;19.80;96.50
31369;DHT22;18004;48.416;10.066;2023-05-23T11:01:12;19.70;97.00
31369;DHT22;18004;48.416;10.066;2023-05-23T11:07:30;20.40;95.20
31369;DHT22;18004;48.416;10.066;2023-05-23T11:10:20;20.20;96.10
31369;DHT22;18004;48.416;10.066;2023-05-23T11:13:16;20.50;92.60
31369;DHT22;18004;48.416;10.066;2023-05-23T11:15:53;20.60;94.00
31369;DHT22;18004;48.416;10.066;2023-05-23T11:18:38;20.50;95.30
31369;DHT22;18004;48.416;10.066;2023-05-23T11:21:05;20.60;92.60
31369;DHT22;18004;48.416;10.066;2023-05-23T11:24:00;20.40;94.00
31369;DHT22;18004;48.416;10.066;2023-05-23T11:33:49;20.80;92.40
31369;DHT22;18004;48.416;10.066;2023-05-23T11:36:24;21.20;66.40
31369;DHT22;18004;48.416;10.066;2023-05-23T11:39:01;21.20;77.30
31369;DHT22;18004;48.416;10.066;2023-05-23T11:45:12;21.00;79.60
31369;DHT22;18004;48.416;10.066;2023-05-23T11:47:41;20.70;86.40
31369;DHT22;18004;48.416;10.066;2023-05-23T11:50:07;20.60;83.90
31369;DHT22;18004;48.416;10.066;2023-05-23T11:52:33;20.50;86.20
31369;DHT22;18004;48.416;10.066;2023-05-23T11:55:00;20.50;86.80
31369;DHT22;18004;48.416;10.066;2023-05-23T11:57:32;20.60;82.30
31369;DHT22;18004;48.416;10.066;2023-05-23T11:59:58;20.90;80.20
31369;DHT22;18004;48.416;10.066;2023-05-23T12:03:10;20.90;74.90
31369;DHT22;18004;48.416;10.066;2023-05-23T12:06:00;21.00;72.40
31369;DHT22;18004;48.416;10.066;2023-05-23T12:15:38;21.40;72.20
31369;DHT22;18004;48.416;10.066;2023-05-23T12:18:06;21.10;66.30
31369;DHT22;18004;48.416;10.066;2023-05-23T12:20:32;20.70;75.80
31369;DHT22;18004;48.416;10.066;2023-05-23T12:23:26;21.00;72.60
31369;DHT22;18004;48.416;10.066;2023-05-23T12:26:10;21.20;45.50
31369;DHT22;18004;48.416;10.066;2023-05-23T12:31:57;21.60;35.60
31369;DHT22;18004;48.416;10.066;2023-05-23T12:34:27;21.40;37.60
31369;DHT22;18004;48.416;10.066;2023-05-23T12:37:02;21.20;37.70
31369;DHT22;18004;48.416;10.066;2023-05-23T12:39:30;21.40;30.00
31369;DHT22;18004;48.416;10.066;2023-05-23T12:42:10;21.20;32.20
31369;DHT22;18004;48.416;10.066;2023-05-23T12:44:36;21.10;35.00
31369;DHT22;18004;48.416;10.066;2023-05-23T12:47:02;21.00;36.60
31369;DHT22;18004;48.416;10.066;2023-05-23T12:49:28;21.00;41.00
31369;DHT22;18004;48.416;10.066;2023-05-23T12:58:24;21.40;53.20
31369;DHT22;18004;48.416;10.066;2023-05-23T13:00:50;21.40;44.60
31369;DHT22;18004;48.416;10.066;2023-05-23T13:11:21;21.40;43.40
31369;DHT22;18004;48.416;10.066;2023-05-23T13:14:24;21.70;35.20
31369;DHT22;18004;48.416;10.066;2023-05-23T13:24:18;21.50;37.40
31369;DHT22;18004;48.416;10.066;2023-05-23T13:27:20;21.70;34.60
31369;DHT22;18004;48.416;10.066;2023-05-23T13:34:15;21.70;27.60
31369;DHT22;18004;48.416;10.066;2023-05-23T13:36:41;21.10;31.80
31369;DHT22;18004;48.416;10.066;2023-05-23T13:39:33;21.20;33.00
31369;DHT22;18004;48.416;10.066;2023-05-23T13:42:43;21.20;24.70
31369;DHT22;18004;48.416;10.066;2023-05-23T13:45:08;21.50;28.00
31369;DHT22;18004;48.416;10.066;2023-05-23T13:47:34;20.80;26.90
31369;DHT22;18004;48.416;10.066;2023-05-23T13:50:01;20.70;28.50
31369;DHT22;18004;48.416;10.066;2023-05-23T13:52:27;20.40;30.80
31369;DHT22;18004;48.416;10.066;2023-05-23T13:54:53;20.40;31.60
31369;DHT22;18004;48.416;10.066;2023-05-23T13:57:19;20.40;28.60
31369;DHT22;18004;48.416;10.066;2023-05-23T13:59:45;20.50;26.00
31369;DHT22;18004;48.416;10.066;2023-05-23T14:02:10;20.50;25.10
31369;DHT22;18004;48.416;10.066;2023-05-23T14:04:36;20.50;26.00
31369;DHT22;18004;48.416;10.066;2023-05-23T14:07:02;20.70;28.70
31369;DHT22;18004;48.416;10.066;2023-05-23T14:09:28;20.50;31.20
31369;DHT22;18004;48.416;10.066;2023-05-23T14:11:55;20.50;34.90
31369;DHT22;18004;48.416;10.066;2023-05-23T14:14:21;20.40;33.40
31369;DHT22;18004;48.416;10.066;2023-05-23T14:16:49;20.40;28.50
31369;DHT22;18004;48.416;10.066;2023-05-23T14:19:16;20.30;23.30
31369;DHT22;18004;48.416;10.066;2023-05-23T14:21:41;20.30;24.90
31369;DHT22;18004;48.416;10.066;2023-05-23T14:24:07;20.50;21.60
31369;DHT22;18004;48.416;10.066;2023-05-23T14:26:33;20.40;21.10
31369;DHT22;18004;48.416;10.066;2023-05-23T14:29:05;20.40;21.60
31369;DHT22;18004;48.416;10.066;2023-05-23T14:31:31;20.70;22.70
31369;DHT22;18004;48.416;10.066;2023-05-23T14:33:57;20.70;20.20
31369;DHT22;18004;48.416;10.066;2023-05-23T14:36:24;20.60;19.60
31369;DHT22;18004;48.416;10.066;2023-05-23T14:38:50;20.40;21.00
31369;DHT22;18004;48.416;10.066;2023-05-23T14:41:16;20.30;21.30
31369;DHT22;18004;48.416;10.066;2023-05-23T14:44:23;20.30;23.60
31369;DHT22;18004;48.416;10.066;2023-05-23T14:47:14;20.70;25.80
31369;DHT22;18004;48.416;10.066;2023-05-23T14:49:40;21.00;20.70
31369;DHT22;18004;48.416;10.066;2023-05-23T14:52:06;21.00;20.20
31369;DHT22;18004;48.416;10.066;2023-05-23T15:05:41;21.00;20.90
31369;DHT22;18004;48.416;10.066;2023-05-23T15:11:52;21.00;21.90
31369;DHT22;18004;48.416;10.066;2023-05-23T15:14:18;20.50;25.70
31369;DHT22;18004;48.416;10.066;2023-05-23T15:16:44;20.00;29.80
31369;DHT22;18004;48.416;10.066;2023-05-23T15:19:10;19.80;35.70
31369;DHT22;18004;48.416;10.066;2023-05-23T15:21:36;19.90;42.40
31369;DHT22;18004;48.416;10.066;2023-05-23T15:24:02;20.20;38.20
31369;DHT22;18004;48.416;10.066;2023-05-23T15:26:28;20.20;36.40
31369;DHT22;18004;48.416;10.066;2023-05-23T15:28:54;19.90;34.50
31369;DHT22;18004;48.416;10.066;2023-05-23T15:31:20;20.00;35.10
31369;DHT22;18004;48.416;10.066;2023-05-23T15:33:46;19.90;33.60
31369;DHT22;18004;48.416;10.066;2023-05-23T15:36:14;20.10;32.70
31369;DHT22;18004;48.416;10.066;2023-05-23T15:38:40;20.00;31.00
31369;DHT22;18004;48.416;10.066;2023-05-23T15:41:06;19.80;37.00
31369;DHT22;18004;48.416;10.066;2023-05-23T15:43:33;19.60;41.00
31369;DHT22;18004;48.416;10.066;2023-05-23T15:46:00;19.70;44.80
31369;DHT22;18004;48.416;10.066;2023-05-23T15:48:26;19.60;46.40
31369;DHT22;18004;48.416;10.066;2023-05-23T15:50:52;19.70;49.10
31369;DHT22;18004;48.416;10.066;2023-05-23T15:53:18;19.90;46.30
31369;DHT22;18004;48.416;10.066;2023-05-23T15:55:43;19.90;42.20
31369;DHT22;18004;48.416;10.066;2023-05-23T15:58:09;19.90;45.50
31369;DHT22;18004;48.416;10.066;2023-05-23T16:00:35;19.60;44.60
31369;DHT22;18004;48.416;10.066;2023-05-23T16:03:01;19.40;45.80
31369;DHT22;18004;48.416;10.066;2023-05-23T16:05:27;19.40;54.50
31369;DHT22;18004;48.416;10.066;2023-05-23T16:07:53;19.30;55.20
31369;DHT22;18004;48.416;10.066;2023-05-23T16:10:19;19.20;58.00
31369;DHT22;18004;48.416;10.066;2023-05-23T16:12:45;19.20;54.90
31369;DHT22;18004;48.416;10.066;2023-05-23T16:15:10;19.10;57.90
31369;DHT22;18004;48.416;10.066;2023-05-23T16:17:36;19.00;55.40
31369;DHT22;18004;48.416;10.066;2023-05-23T16:20:02;19.10;52.30
31369;DHT22;18004;48.416;10.066;2023-05-23T16:22:29;18.90;53.10
31369;DHT22;18004;48.416;10.066;2023-05-23T16:24:55;19.00;54.00
31369;DHT22;18004;48.416;10.066;2023-05-23T16:27:22;19.00;54.00
31369;DHT22;18004;48.416;10.066;2023-05-23T16:29:48;18.90;49.80
31369;DHT22;18004;48.416;10.066;2023-05-23T16:32:14;18.90;43.10
31369;DHT22;18004;48.416;10.066;2023-05-23T16:34:41;19.00;44.10
31369;DHT22;18004;48.416;10.066;2023-05-23T16:37:07;19.20;41.30
31369;DHT22;18004;48.416;10.066;2023-05-23T16:39:33;19.30;38.00
31369;DHT22;18004;48.416;10.066;2023-05-23T16:41:59;19.20;36.10
31369;DHT22;18004;48.416;10.066;2023-05-23T16:44:25;19.10;36.70
31369;DHT22;18004;48.416;10.066;2023-05-23T16:46:50;19.10;39.10
31369;DHT22;18004;48.416;10.066;2023-05-23T16:49:17;19.00;40.80
31369;DHT22;18004;48.416;10.066;2023-05-23T16:51:42;18.90;43.10
31369;DHT22;18004;48.416;10.066;2023-05-23T16:54:08;18.90;50.00
31369;DHT22;18004;48.416;10.066;2023-05-23T16:56:34;19.10;44.90
31369;DHT22;18004;48.416;10.066;2023-05-23T16:59:04;19.00;42.30
31369;DHT22;18004;48.416;10.066;2023-05-23T17:01:30;19.00;44.30
31369;DHT22;18004;48.416;10.066;2023-05-23T17:03:56;19.00;45.80
31369;DHT22;18004;48.416;10.066;2023-05-23T17:06:22;19.00;41.10
31369;DHT22;18004;48.416;10.066;2023-05-23T17:08:48;18.90;40.70
31369;DHT22;18004;48.416;10.066;2023-05-23T17:11:14;18.90;36.80
31369;DHT22;18004;48.416;10.066;2023-05-23T17:13:46;18.90;38.90
31369;DHT22;18004;48.416;10.066;2023-05-23T17:16:13;19.00;39.00
31369;DHT22;18004;48.416;10.066;2023-05-23T17:18:41;18.90;32.40
31369;DHT22;18004;48.416;10.066;2023-05-23T17:21:07;19.00;38.40
31369;DHT22;18004;48.416;10.066;2023-05-23T17:23:33;18.90;44.70
31369;DHT22;18004;48.416;10.066;2023-05-23T17:25:59;18.80;47.20
31369;DHT22;18004;48.416;10.066;2023-05-23T17:28:28;18.80;47.20
31369;DHT22;18004;48.416;10.066;2023-05-23T17:31:17;18.80;44.80